Kansas City, Missouri
Current Conditions -  °F | °C
As of 1:54 AM on Thursday 23 Oct 2014 (Local Time) from KMKC Reporting Station
Broken Clouds Broken Clouds  
Wind Chill: 64°   Ceiling: 5000
Heat Index: 64°   Visibility: 10mi
Dew Point: 51°   Wind: 8mph
Humidity: 63%   Direction: 190°S
Pressure: 30.09"   Gusts: NA
Location:  39.1°N, 94.58°W
Report Text: KMKC 230654Z 19007KT 10SM BKN050 BKN060 BKN075 18/11 A3009 RMK AO2 SLP185 T01780106
Loading
Personal Weather Stations






























Interactive Weather Map
Tropical Storm Tracking
New forecast layout! Learn more

10-Day Weather Forecast

Advertisements
Track Severe Weather on mobile